Terminal Aerodrome Forecast
Issued by NWS

Home | Current Version | Previous Version | Graphics & Text | Print | Product List | Glossary On
Versions: 1 2 3 4 5 6 7 8 9 10 11 12 13 14 15 16 17 18 19 20 21 22
000
FTUS43 KGRB 301000 AAB
TAFATW
TAF AMD
KATW 301006Z 3010/3106 25004KT 4SM BR SCT003 BKN010
      TEMPO 3010/3012 1SM BR OVC003
     FM301300 34003KT P6SM SCT020 SCT070
     FM302000 23005KT P6SM VCSH SCT035 BKN060=

USA.gov is the U.S. government's official web portal to all federal, state and local government web resources and services.